createdAt,value
2023-01-21T00:02:25.981Z,3.22
2023-01-21T00:04:54.695Z,3.25
2023-01-21T00:07:30.426Z,3.30
2023-01-21T00:09:59.185Z,3.22
2023-01-21T00:12:28.132Z,3.10
2023-01-21T00:14:56.600Z,3.40
2023-01-21T00:17:25.550Z,3.10
2023-01-21T00:19:54.223Z,2.58
2023-01-21T00:22:22.907Z,2.90
2023-01-21T00:24:52.974Z,3.67
2023-01-21T00:27:22.904Z,2.67
2023-01-21T00:29:51.292Z,2.95
2023-01-21T00:32:21.294Z,2.50
2023-01-21T00:34:50.503Z,2.73
2023-01-21T00:37:20.764Z,2.90
2023-01-21T00:39:49.249Z,2.90
2023-01-21T00:42:19.177Z,2.70
2023-01-21T00:44:48.297Z,2.72
2023-01-21T00:47:18.047Z,2.40
2023-01-21T00:49:46.375Z,2.78
2023-01-21T00:52:15.581Z,2.58
2023-01-21T00:54:44.596Z,2.35
2023-01-21T00:57:14.031Z,2.63
2023-01-21T00:59:44.372Z,2.80
2023-01-21T01:02:13.428Z,2.70
2023-01-21T01:04:42.227Z,2.55
2023-01-21T01:07:13.985Z,2.55
2023-01-21T01:09:42.370Z,2.58
2023-01-21T01:12:12.381Z,2.70
2023-01-21T01:14:40.795Z,2.95
2023-01-21T01:17:10.681Z,2.97
2023-01-21T01:19:39.365Z,2.75
2023-01-21T01:22:07.829Z,2.97
2023-01-21T01:24:36.330Z,2.92
2023-01-21T01:27:05.536Z,2.80
2023-01-21T01:29:34.102Z,2.97
2023-01-21T01:32:03.191Z,2.38
2023-01-21T01:34:33.199Z,2.75
2023-01-21T01:37:01.786Z,2.65
2023-01-21T01:39:30.504Z,2.65
2023-01-21T01:41:59.751Z,2.70
2023-01-21T01:44:55.812Z,2.40
2023-01-21T01:47:28.482Z,2.45
2023-01-21T01:49:59.011Z,2.50
2023-01-21T01:52:28.710Z,2.55
2023-01-21T01:55:00.458Z,2.75
2023-01-21T01:57:33.859Z,2.10
2023-01-21T02:00:04.310Z,2.05
2023-01-21T02:02:41.684Z,2.10
2023-01-21T02:05:12.879Z,2.20
2023-01-21T02:07:43.898Z,2.40
2023-01-21T02:10:16.579Z,2.22
2023-01-21T02:12:45.745Z,1.80
2023-01-21T02:15:14.246Z,1.88
2023-01-21T02:17:55.535Z,1.98
2023-01-21T02:20:49.379Z,1.75
2023-01-21T02:23:23.872Z,1.75
2023-01-21T02:26:30.971Z,1.85
2023-01-21T02:29:18.833Z,1.70
2023-01-21T02:32:29.149Z,2.00
2023-01-21T02:35:05.256Z,2.00
2023-01-21T02:37:44.882Z,1.90
2023-01-21T02:40:19.071Z,1.88
2023-01-21T02:42:50.260Z,1.85
2023-01-21T02:45:28.595Z,2.50
2023-01-21T02:48:06.313Z,1.92
2023-01-21T02:50:40.835Z,1.73
2023-01-21T02:53:24.695Z,2.13
2023-01-21T02:55:53.876Z,1.88
2023-01-21T02:58:28.674Z,1.90
2023-01-21T03:01:12.604Z,1.88
2023-01-21T03:03:56.436Z,1.70
2023-01-21T03:06:42.731Z,1.70
2023-01-21T03:09:22.302Z,1.80
2023-01-21T03:12:00.687Z,1.83
2023-01-21T03:14:50.595Z,1.80
2023-01-21T03:17:29.289Z,1.65
2023-01-21T03:20:03.618Z,1.42
2023-01-21T03:22:36.353Z,1.38
2023-01-21T03:25:06.485Z,1.35
2023-01-21T03:27:38.431Z,1.38
2023-01-21T03:30:13.430Z,1.58
2023-01-21T03:32:44.268Z,1.10
2023-01-21T03:35:17.792Z,1.60
2023-01-21T03:37:54.100Z,1.40
2023-01-21T03:40:25.457Z,1.40
2023-01-21T03:42:56.596Z,1.10
2023-01-21T03:45:38.586Z,1.23
2023-01-21T03:48:15.215Z,1.17
2023-01-21T03:50:49.745Z,1.27
2023-01-21T03:53:19.673Z,1.23
2023-01-21T03:55:51.903Z,1.27
2023-01-21T03:58:20.265Z,1.45
2023-01-21T04:00:49.489Z,1.15
2023-01-21T04:03:22.450Z,1.50
2023-01-21T04:05:50.836Z,0.82
2023-01-21T04:08:20.548Z,1.00
2023-01-21T04:10:49.464Z,0.90
2023-01-21T04:13:17.849Z,1.10
2023-01-21T04:15:46.526Z,1.08
2023-01-21T04:18:14.929Z,0.90
2023-01-21T04:20:43.663Z,1.23
2023-01-21T04:23:12.892Z,1.00
2023-01-21T04:25:42.704Z,0.98
2023-01-21T04:28:10.991Z,0.98
2023-01-21T04:30:39.581Z,0.98
2023-01-21T04:33:07.954Z,0.85
2023-01-21T04:35:36.800Z,0.80
2023-01-21T04:38:06.905Z,1.00
2023-01-21T04:40:35.822Z,0.80
2023-01-21T04:43:05.432Z,0.80
2023-01-21T04:45:36.992Z,0.73
2023-01-21T04:48:05.635Z,1.23
2023-01-21T04:50:34.020Z,0.90
2023-01-21T04:53:02.501Z,0.80
2023-01-21T04:55:30.940Z,0.85
2023-01-21T04:57:59.262Z,0.85
2023-01-21T05:00:29.128Z,0.73
2023-01-21T05:02:57.874Z,1.08
2023-01-21T05:05:26.298Z,0.63
2023-01-21T05:07:56.069Z,0.80
2023-01-21T05:10:24.358Z,0.70
2023-01-21T05:12:52.757Z,0.80
2023-01-21T05:15:21.133Z,0.95
2023-01-21T05:17:50.697Z,0.82
2023-01-21T05:20:22.683Z,0.82
2023-01-21T05:22:51.232Z,0.68
2023-01-21T05:25:19.839Z,0.90
2023-01-21T05:27:53.233Z,0.50
2023-01-21T05:30:21.889Z,0.60
2023-01-21T05:32:56.603Z,0.50
2023-01-21T05:35:25.993Z,0.63
2023-01-21T05:37:54.553Z,0.70
2023-01-21T05:40:23.189Z,0.75
2023-01-21T05:42:51.389Z,0.80
2023-01-21T05:45:19.775Z,0.63
2023-01-21T05:47:48.212Z,0.75
2023-01-21T05:50:18.406Z,0.50
2023-01-21T05:52:47.136Z,0.60
2023-01-21T05:55:15.589Z,0.50
2023-01-21T05:57:43.790Z,0.40
2023-01-21T06:00:13.447Z,0.47
2023-01-21T06:02:41.846Z,0.70
2023-01-21T06:05:10.472Z,0.50
2023-01-21T06:07:40.079Z,0.60
2023-01-21T06:10:09.879Z,0.60
2023-01-21T06:12:38.160Z,0.50
2023-01-21T06:15:07.695Z,0.40
2023-01-21T06:17:39.277Z,0.45
2023-01-21T06:22:36.556Z,0.45
2023-01-21T06:25:06.827Z,0.57
2023-01-21T06:27:37.350Z,0.50
2023-01-21T06:30:07.731Z,2.75
2023-01-21T06:32:36.365Z,8.30
2023-01-21T06:35:05.485Z,17.02
2023-01-21T06:37:33.963Z,5.93
2023-01-21T06:40:02.737Z,6.80
2023-01-21T06:42:32.873Z,4.78
2023-01-21T06:45:01.389Z,2.35
2023-01-21T06:47:29.871Z,2.13
2023-01-21T06:49:58.341Z,1.38
2023-01-21T06:52:27.128Z,4.60
2023-01-21T06:54:55.625Z,1.33
2023-01-21T06:57:25.112Z,1.13
2023-01-21T06:59:54.782Z,0.70
2023-01-21T07:02:23.563Z,0.93
2023-01-21T07:04:52.471Z,0.70
2023-01-21T07:07:20.852Z,0.60
2023-01-21T07:09:49.251Z,1.10
2023-01-21T07:12:17.651Z,1.00
2023-01-21T07:14:46.160Z,1.90
2023-01-21T07:17:16.614Z,0.80
2023-01-21T07:19:44.976Z,1.30
2023-01-21T07:22:13.449Z,0.77
2023-01-21T07:24:41.908Z,0.70
2023-01-21T07:27:10.921Z,0.75
2023-01-21T07:29:39.747Z,0.57
2023-01-21T07:32:08.378Z,0.45
2023-01-21T07:34:38.851Z,0.60
2023-01-21T07:37:07.784Z,0.43
2023-01-21T07:39:36.646Z,0.45
2023-01-21T07:42:05.499Z,0.65
2023-01-21T07:44:34.884Z,0.55
2023-01-21T07:47:05.425Z,0.80
2023-01-21T07:49:36.371Z,1.60
2023-01-21T07:52:06.437Z,2.90
2023-01-21T07:54:35.223Z,1.20
2023-01-21T07:57:07.439Z,0.88
2023-01-21T07:59:36.076Z,0.68
2023-01-21T08:11:58.938Z,25.88
2023-01-21T08:14:27.731Z,1.60
2023-01-21T08:16:56.830Z,2.05
2023-01-21T08:19:25.244Z,3.08
2023-01-21T08:21:54.196Z,2.53
2023-01-21T08:24:23.832Z,1.70
2023-01-21T08:26:52.213Z,2.95
2023-01-21T08:29:22.771Z,1.70
2023-01-21T08:31:52.522Z,3.92
2023-01-21T08:34:21.591Z,3.33
2023-01-21T08:36:50.305Z,2.85
2023-01-21T08:39:19.154Z,1.10
2023-01-21T08:41:47.896Z,1.20
2023-01-21T08:44:16.318Z,2.55
2023-01-21T08:46:46.183Z,1.50
2023-01-21T08:49:14.649Z,2.78
2023-01-21T08:51:43.341Z,17.70
2023-01-21T08:54:12.147Z,11.57
2023-01-21T08:56:40.633Z,10.40
2023-01-21T08:59:09.011Z,5.97
2023-01-21T09:01:41.108Z,5.75
2023-01-21T09:04:11.588Z,4.40
2023-01-21T09:06:40.075Z,3.13
2023-01-21T09:09:08.770Z,2.38
2023-01-21T09:11:37.376Z,2.72
2023-01-21T09:14:06.958Z,2.90
2023-01-21T09:16:36.775Z,2.65
2023-01-21T09:19:06.114Z,2.15
2023-01-21T09:21:38.017Z,3.72
2023-01-21T09:24:08.309Z,3.85
2023-01-21T09:26:37.736Z,5.70
2023-01-21T09:29:10.605Z,3.70
2023-01-21T09:31:44.472Z,2.00
2023-01-21T09:34:14.121Z,2.63
2023-01-21T09:36:44.410Z,2.58
2023-01-21T09:39:16.141Z,2.05
2023-01-21T09:41:49.874Z,2.28
2023-01-21T09:44:30.038Z,1.40
2023-01-21T09:47:04.830Z,1.73
2023-01-21T09:49:39.706Z,2.50
2023-01-21T09:52:23.309Z,2.22
2023-01-21T09:54:53.859Z,1.83
2023-01-21T09:57:42.563Z,1.98
2023-01-21T10:00:34.541Z,2.47
2023-01-21T10:03:14.069Z,2.28
2023-01-21T10:06:12.725Z,2.65
2023-01-21T10:08:57.779Z,2.72
2023-01-21T10:11:40.235Z,2.90
2023-01-21T10:14:30.046Z,3.42
2023-01-21T10:17:06.194Z,4.25
2023-01-21T10:19:42.938Z,3.17
2023-01-21T10:22:17.191Z,3.30
2023-01-21T10:24:52.073Z,2.67
2023-01-21T10:27:23.911Z,3.88
2023-01-21T10:29:57.124Z,3.20
2023-01-21T10:32:28.485Z,3.85
2023-01-21T10:35:01.014Z,3.00
2023-01-21T10:37:37.175Z,3.33
2023-01-21T10:40:36.980Z,3.67
2023-01-21T10:43:11.815Z,3.35
2023-01-21T10:45:52.493Z,3.13
2023-01-21T10:48:30.040Z,3.47
2023-01-21T10:51:07.217Z,3.50
2023-01-21T10:53:48.674Z,4.28
2023-01-21T10:56:47.072Z,3.53
2023-01-21T10:59:22.139Z,3.65
2023-01-21T11:01:54.870Z,3.22
2023-01-21T11:04:25.599Z,3.00
2023-01-21T11:07:00.772Z,2.90
2023-01-21T11:09:36.757Z,3.20
2023-01-21T11:12:07.135Z,3.60
2023-01-21T11:14:36.146Z,3.38
2023-01-21T11:17:05.255Z,2.80
2023-01-21T11:19:34.068Z,3.30
2023-01-21T11:22:05.265Z,3.30
2023-01-21T11:24:43.955Z,3.47
2023-01-21T11:27:23.008Z,3.30
2023-01-21T11:29:52.175Z,4.05
2023-01-21T11:32:23.763Z,4.32
2023-01-21T11:34:57.994Z,4.53
2023-01-21T11:37:28.320Z,3.80
2023-01-21T11:39:59.088Z,3.75
2023-01-21T11:42:29.136Z,4.03
2023-01-21T11:45:04.542Z,4.55
2023-01-21T11:47:41.218Z,4.55
2023-01-21T11:50:13.646Z,5.38
2023-01-21T11:52:42.127Z,6.45
2023-01-21T11:55:23.120Z,6.70
2023-01-21T11:57:56.663Z,6.47
2023-01-21T12:00:29.920Z,5.68
2023-01-21T12:03:06.393Z,6.57
2023-01-21T12:05:37.964Z,6.05
2023-01-21T12:08:08.245Z,5.55
2023-01-21T12:10:43.690Z,5.97
2023-01-21T12:13:21.314Z,5.18
2023-01-21T12:16:22.217Z,4.82
2023-01-21T12:19:25.188Z,4.88
2023-01-21T12:22:07.226Z,4.38
2023-01-21T12:27:22.384Z,4.50
2023-01-21T12:30:03.327Z,5.38
2023-01-21T12:32:37.402Z,5.68
2023-01-21T12:35:13.112Z,6.18
2023-01-21T12:37:48.516Z,5.97
2023-01-21T12:40:23.501Z,5.07
2023-01-21T12:42:57.379Z,6.05
2023-01-21T12:45:35.498Z,5.68
2023-01-21T12:48:11.924Z,6.05
2023-01-21T12:50:44.771Z,5.05
2023-01-21T12:53:19.574Z,5.72
2023-01-21T12:56:09.477Z,4.75
2023-01-21T12:58:44.117Z,4.60
2023-01-21T13:01:19.293Z,4.90
2023-01-21T13:03:57.151Z,4.68
2023-01-21T13:06:51.997Z,4.25
2023-01-21T13:09:30.594Z,4.60
2023-01-21T13:12:04.903Z,4.82
2023-01-21T13:14:40.120Z,5.70
2023-01-21T13:17:16.370Z,4.72
2023-01-21T13:19:45.294Z,5.30
2023-01-21T13:22:26.038Z,5.55
2023-01-21T13:25:15.180Z,5.57
2023-01-21T13:27:51.858Z,5.88
2023-01-21T13:30:29.778Z,5.30
2023-01-21T13:33:15.585Z,4.97
2023-01-21T13:35:51.658Z,6.00
2023-01-21T13:38:28.699Z,6.47
2023-01-21T13:41:10.129Z,8.98
2023-01-21T13:43:58.227Z,8.52
2023-01-21T13:46:48.210Z,7.22
2023-01-21T13:49:40.230Z,7.47
2023-01-21T13:52:14.114Z,7.13
2023-01-21T13:55:13.116Z,7.38
2023-01-21T13:57:58.289Z,7.85
2023-01-21T14:00:32.420Z,6.40
2023-01-21T14:03:12.941Z,6.75
2023-01-21T14:05:48.666Z,12.17
2023-01-21T14:08:27.501Z,10.73
2023-01-21T14:11:00.195Z,7.22
2023-01-21T14:14:04.927Z,7.78
2023-01-21T14:17:10.102Z,6.70
2023-01-21T14:20:08.301Z,5.78
2023-01-21T14:23:07.185Z,6.05
2023-01-21T14:25:48.715Z,6.32
2023-01-21T14:28:28.188Z,5.90
2023-01-21T14:31:04.999Z,6.28
2023-01-21T14:33:44.508Z,5.43
2023-01-21T14:36:19.299Z,6.60
2023-01-21T14:39:00.843Z,6.07
2023-01-21T14:42:01.397Z,6.00
2023-01-21T14:44:38.228Z,5.53
2023-01-21T14:47:23.252Z,6.00
2023-01-21T14:49:54.147Z,7.03
2023-01-21T14:52:30.432Z,6.60
2023-01-21T14:55:01.300Z,6.72
2023-01-21T14:57:32.854Z,7.95
2023-01-21T15:00:14.206Z,8.38
2023-01-21T15:02:46.265Z,8.23
2023-01-21T15:05:27.695Z,8.10
2023-01-21T15:08:06.419Z,7.38
2023-01-21T15:10:40.083Z,7.15
2023-01-21T15:13:29.252Z,7.97
2023-01-21T15:16:15.041Z,8.15
2023-01-21T15:18:48.781Z,9.23
2023-01-21T15:21:38.574Z,9.70
2023-01-21T15:24:24.570Z,9.95
2023-01-21T15:27:18.719Z,14.02
2023-01-21T15:30:28.295Z,18.13
2023-01-21T15:32:57.988Z,22.02
2023-01-21T15:35:43.723Z,21.40
2023-01-21T15:38:19.089Z,12.48
2023-01-21T15:40:53.260Z,10.57
2023-01-21T15:43:33.185Z,10.57
2023-01-21T15:46:22.950Z,9.93
2023-01-21T15:49:04.131Z,9.50
2023-01-21T15:51:47.960Z,9.80
2023-01-21T15:54:28.177Z,9.85
2023-01-21T15:57:06.531Z,9.20
2023-01-21T16:00:12.869Z,9.70
2023-01-21T16:02:53.177Z,8.65
2023-01-21T16:05:30.544Z,6.93
2023-01-21T16:08:12.443Z,7.60
2023-01-21T16:10:52.735Z,6.63
2023-01-21T16:13:30.736Z,6.55
2023-01-21T16:16:12.786Z,7.70
2023-01-21T16:18:53.855Z,8.00
2023-01-21T16:21:24.899Z,8.75
2023-01-21T16:23:57.654Z,7.82
2023-01-21T16:26:28.078Z,7.72
2023-01-21T16:28:56.793Z,7.72
2023-01-21T16:31:27.829Z,7.85
2023-01-21T16:33:56.158Z,7.60
2023-01-21T16:36:25.341Z,8.20
2023-01-21T16:38:54.135Z,6.82
2023-01-21T16:41:27.787Z,7.95
2023-01-21T16:44:00.169Z,8.13
2023-01-21T16:46:34.922Z,8.70
2023-01-21T16:49:05.951Z,9.55
2023-01-21T16:51:36.460Z,7.60
2023-01-21T16:54:25.897Z,7.85
2023-01-21T16:56:58.041Z,8.98
2023-01-21T17:02:00.311Z,10.98
2023-01-21T17:04:30.441Z,11.35
2023-01-21T17:06:59.066Z,18.33
2023-01-21T17:09:31.845Z,16.33
2023-01-21T17:12:06.555Z,13.65
2023-01-21T17:14:36.204Z,15.27
2023-01-21T17:17:09.299Z,16.65
2023-01-21T17:19:39.948Z,16.13
2023-01-21T17:22:15.870Z,9.73
2023-01-21T17:24:56.821Z,9.45
2023-01-21T17:27:26.555Z,10.93
2023-01-21T17:30:15.370Z,10.10
2023-01-21T17:32:53.811Z,10.98
2023-01-21T17:35:23.679Z,10.70
2023-01-21T17:37:57.210Z,10.27
2023-01-21T17:40:27.537Z,11.32
2023-01-21T17:42:56.579Z,12.00
2023-01-21T17:45:31.109Z,11.45
2023-01-21T17:48:10.310Z,10.63
2023-01-21T17:50:47.421Z,8.13
2023-01-21T17:53:22.886Z,9.25
2023-01-21T17:56:00.702Z,9.00
2023-01-21T17:58:50.895Z,9.00
2023-01-21T18:01:20.595Z,8.98
2023-01-21T18:03:50.543Z,8.48
2023-01-21T18:06:21.481Z,9.63
2023-01-21T18:08:52.949Z,8.32
2023-01-21T18:11:22.177Z,9.98
2023-01-21T18:13:51.657Z,9.35
2023-01-21T18:16:20.159Z,10.75
2023-01-21T18:18:50.827Z,8.82
2023-01-21T18:21:21.173Z,8.90
2023-01-21T18:23:50.071Z,9.15
2023-01-21T18:26:26.723Z,9.20
2023-01-21T18:28:55.083Z,9.32
2023-01-21T18:31:23.692Z,9.38
2023-01-21T18:33:53.536Z,9.93
2023-01-21T18:36:22.345Z,9.68
2023-01-21T18:38:50.672Z,9.98
2023-01-21T18:41:19.151Z,10.10
2023-01-21T18:43:47.679Z,10.52
2023-01-21T18:46:17.235Z,11.52
2023-01-21T18:48:45.966Z,11.27
2023-01-21T18:51:15.909Z,10.95
2023-01-21T18:53:44.313Z,11.15
2023-01-21T18:56:15.257Z,11.48
2023-01-21T18:58:44.725Z,11.85
2023-01-21T19:01:23.014Z,11.32
2023-01-21T19:03:54.938Z,10.40
2023-01-21T19:06:26.247Z,11.57
2023-01-21T19:08:55.303Z,10.73
2023-01-21T19:11:24.088Z,11.10
2023-01-21T19:13:52.963Z,11.70
2023-01-21T19:16:22.365Z,12.10
2023-01-21T19:18:51.852Z,11.80
2023-01-21T19:21:20.691Z,11.32
2023-01-21T19:23:50.953Z,11.15
2023-01-21T19:26:19.963Z,11.13
2023-01-21T19:28:48.572Z,10.93
2023-01-21T19:31:17.363Z,10.50
2023-01-21T19:33:47.301Z,10.32
2023-01-21T19:36:19.885Z,9.98
2023-01-21T19:38:56.401Z,11.02
2023-01-21T19:41:25.947Z,10.68
2023-01-21T19:43:54.392Z,10.07
2023-01-21T19:46:24.314Z,10.88
2023-01-21T19:48:53.896Z,11.10
2023-01-21T19:51:22.702Z,10.63
2023-01-21T19:53:52.545Z,11.15
2023-01-21T19:56:24.607Z,12.40
2023-01-21T19:58:53.469Z,13.45
2023-01-21T20:01:22.316Z,13.70
2023-01-21T20:03:59.762Z,12.73
2023-01-21T20:06:34.056Z,10.88
2023-01-21T20:10:32.302Z,10.35
2023-01-21T20:13:01.125Z,10.18
2023-01-21T20:15:31.792Z,9.45
2023-01-21T20:18:02.469Z,9.98
2023-01-21T20:20:33.144Z,11.48
2023-01-21T20:23:02.700Z,11.35
2023-01-21T20:25:37.027Z,10.38
2023-01-21T20:28:13.982Z,9.43
2023-01-21T20:30:45.385Z,9.82
2023-01-21T20:33:17.014Z,11.02
2023-01-21T20:35:47.678Z,11.25
2023-01-21T20:38:21.170Z,14.40
2023-01-21T20:40:51.135Z,13.68
2023-01-21T20:43:20.547Z,14.43
2023-01-21T20:45:52.649Z,14.40
2023-01-21T20:50:54.078Z,16.13
2023-01-21T20:53:23.200Z,15.73
2023-01-21T20:55:54.491Z,13.43
2023-01-21T20:58:23.358Z,22.50
2023-01-21T21:00:51.894Z,18.80
2023-01-21T21:03:20.435Z,15.88
2023-01-21T21:05:50.231Z,13.98
2023-01-21T21:08:20.571Z,13.00
2023-01-21T21:10:50.943Z,12.40
2023-01-21T21:13:20.820Z,12.43
2023-01-21T21:15:51.075Z,12.65
2023-01-21T21:18:19.765Z,12.15
2023-01-21T21:20:48.257Z,13.30
2023-01-21T21:23:16.916Z,12.43
2023-01-21T21:25:47.391Z,12.32
2023-01-21T21:28:18.138Z,12.38
2023-01-21T21:30:48.413Z,12.40
2023-01-21T21:33:22.231Z,11.82
2023-01-21T21:35:51.567Z,12.63
2023-01-21T21:38:22.102Z,12.50
2023-01-21T21:40:53.101Z,11.85
2023-01-21T21:43:35.828Z,12.57
2023-01-21T21:46:27.873Z,12.77
2023-01-21T21:48:56.305Z,13.43
2023-01-21T21:51:25.236Z,11.90
2023-01-21T21:53:53.902Z,13.82
2023-01-21T21:56:23.846Z,13.88
2023-01-21T21:58:52.475Z,14.02
2023-01-21T22:01:24.678Z,12.13
2023-01-21T22:03:53.896Z,12.88
2023-01-21T22:06:23.750Z,13.23
2023-01-21T22:08:55.010Z,14.05
2023-01-21T22:11:24.399Z,14.25
2023-01-21T22:13:54.114Z,13.43
2023-01-21T22:16:26.456Z,11.82
2023-01-21T22:18:56.102Z,13.32
2023-01-21T22:21:26.607Z,12.68
2023-01-21T22:23:55.860Z,12.52
2023-01-21T22:26:26.299Z,13.75
2023-01-21T22:28:55.610Z,12.88
2023-01-21T22:31:27.466Z,12.40
2023-01-21T22:33:56.938Z,13.50
2023-01-21T22:36:28.121Z,13.02
2023-01-21T22:38:57.013Z,13.63
2023-01-21T22:41:26.290Z,13.07
2023-01-21T22:43:55.217Z,12.52
2023-01-21T22:46:27.073Z,12.43
2023-01-21T22:48:56.045Z,11.52
2023-01-21T22:51:24.828Z,12.60
2023-01-21T22:53:53.988Z,12.00
2023-01-21T22:56:44.769Z,11.68
2023-01-21T22:59:14.344Z,12.30
2023-01-21T23:01:44.492Z,11.85
2023-01-21T23:04:13.372Z,11.90
2023-01-21T23:06:44.877Z,11.57
2023-01-21T23:11:45.146Z,12.30
2023-01-21T23:14:14.291Z,11.07
2023-01-21T23:16:44.035Z,12.88
2023-01-21T23:19:13.152Z,12.25
2023-01-21T23:21:41.657Z,11.77
2023-01-21T23:24:10.079Z,12.45
2023-01-21T23:26:38.956Z,11.98
2023-01-21T23:29:07.324Z,12.32
2023-01-21T23:31:36.313Z,12.15
2023-01-21T23:34:06.210Z,12.30
2023-01-21T23:36:35.168Z,11.73
2023-01-21T23:39:03.890Z,10.77
2023-01-21T23:41:32.489Z,10.73
2023-01-21T23:44:02.007Z,11.18
2023-01-21T23:46:31.261Z,10.88
2023-01-21T23:48:59.800Z,11.00
2023-01-21T23:51:30.119Z,9.63
2023-01-21T23:53:58.575Z,9.25
2023-01-21T23:56:27.568Z,9.10
2023-01-21T23:58:56.306Z,9.10
